sensor_id;sensor_type;location;lat;lon;timestamp;P1;durP1;ratioP1;P2;durP2;ratioP2
19877;SDS011;10101;52.204;9.910;2022-08-30T00:02:23;3.40;;;0.77;;
19877;SDS011;10101;52.204;9.910;2022-08-30T00:04:49;1.07;;;0.70;;
19877;SDS011;10101;52.204;9.910;2022-08-30T00:07:18;1.20;;;0.70;;
19877;SDS011;10101;52.204;9.910;2022-08-30T00:09:44;0.73;;;0.73;;
19877;SDS011;10101;52.204;9.910;2022-08-30T00:12:11;1.27;;;0.50;;
19877;SDS011;10101;52.204;9.910;2022-08-30T00:14:38;0.63;;;0.50;;
19877;SDS011;10101;52.204;9.910;2022-08-30T00:17:05;0.73;;;0.60;;
19877;SDS011;10101;52.204;9.910;2022-08-30T00:19:33;0.73;;;0.70;;
19877;SDS011;10101;52.204;9.910;2022-08-30T00:21:59;2.00;;;0.60;;
19877;SDS011;10101;52.204;9.910;2022-08-30T00:24:26;0.67;;;0.67;;
19877;SDS011;10101;52.204;9.910;2022-08-30T00:26:53;0.93;;;0.70;;
19877;SDS011;10101;52.204;9.910;2022-08-30T00:29:20;0.67;;;0.67;;
19877;SDS011;10101;52.204;9.910;2022-08-30T00:31:47;1.00;;;0.73;;
19877;SDS011;10101;52.204;9.910;2022-08-30T00:34:14;0.80;;;0.70;;
19877;SDS011;10101;52.204;9.910;2022-08-30T00:36:43;1.40;;;0.80;;
19877;SDS011;10101;52.204;9.910;2022-08-30T00:39:10;1.13;;;0.67;;
19877;SDS011;10101;52.204;9.910;2022-08-30T00:41:36;0.70;;;0.70;;
19877;SDS011;10101;52.204;9.910;2022-08-30T00:44:03;0.83;;;0.70;;
19877;SDS011;10101;52.204;9.910;2022-08-30T00:46:30;0.70;;;0.70;;
19877;SDS011;10101;52.204;9.910;2022-08-30T00:48:57;2.50;;;0.80;;
19877;SDS011;10101;52.204;9.910;2022-08-30T00:51:27;1.10;;;1.00;;
19877;SDS011;10101;52.204;9.910;2022-08-30T00:53:57;1.87;;;0.97;;
19877;SDS011;10101;52.204;9.910;2022-08-30T00:56:24;0.77;;;0.77;;
19877;SDS011;10101;52.204;9.910;2022-08-30T00:58:53;2.03;;;0.80;;
19877;SDS011;10101;52.204;9.910;2022-08-30T01:01:22;1.70;;;0.90;;
19877;SDS011;10101;52.204;9.910;2022-08-30T01:03:50;1.80;;;0.90;;
19877;SDS011;10101;52.204;9.910;2022-08-30T01:06:17;2.90;;;1.10;;
19877;SDS011;10101;52.204;9.910;2022-08-30T01:08:45;1.23;;;1.00;;
19877;SDS011;10101;52.204;9.910;2022-08-30T01:11:14;4.97;;;1.30;;
19877;SDS011;10101;52.204;9.910;2022-08-30T01:13:43;1.07;;;1.00;;
19877;SDS011;10101;52.204;9.910;2022-08-30T01:16:11;1.53;;;1.20;;
19877;SDS011;10101;52.204;9.910;2022-08-30T01:18:38;2.30;;;1.37;;
19877;SDS011;10101;52.204;9.910;2022-08-30T01:21:07;1.23;;;1.00;;
19877;SDS011;10101;52.204;9.910;2022-08-30T01:23:42;1.30;;;1.20;;
19877;SDS011;10101;52.204;9.910;2022-08-30T01:26:11;2.50;;;1.43;;
19877;SDS011;10101;52.204;9.910;2022-08-30T01:28:38;1.30;;;1.20;;
19877;SDS011;10101;52.204;9.910;2022-08-30T01:31:06;1.27;;;1.10;;
19877;SDS011;10101;52.204;9.910;2022-08-30T01:33:34;1.00;;;1.00;;
19877;SDS011;10101;52.204;9.910;2022-08-30T01:36:03;1.30;;;1.20;;
19877;SDS011;10101;52.204;9.910;2022-08-30T01:38:33;1.20;;;1.10;;
19877;SDS011;10101;52.204;9.910;2022-08-30T01:41:08;1.30;;;1.20;;
19877;SDS011;10101;52.204;9.910;2022-08-30T01:43:36;2.17;;;1.07;;
19877;SDS011;10101;52.204;9.910;2022-08-30T01:46:03;1.13;;;1.03;;
19877;SDS011;10101;52.204;9.910;2022-08-30T01:48:31;0.90;;;0.90;;
19877;SDS011;10101;52.204;9.910;2022-08-30T01:50:58;1.10;;;1.10;;
19877;SDS011;10101;52.204;9.910;2022-08-30T01:53:25;3.83;;;1.20;;
19877;SDS011;10101;52.204;9.910;2022-08-30T01:55:52;2.73;;;1.10;;
19877;SDS011;10101;52.204;9.910;2022-08-30T01:58:20;1.20;;;1.00;;
19877;SDS011;10101;52.204;9.910;2022-08-30T02:00:47;1.03;;;1.03;;
19877;SDS011;10101;52.204;9.910;2022-08-30T02:03:14;1.00;;;1.00;;
19877;SDS011;10101;52.204;9.910;2022-08-30T02:05:41;1.27;;;1.00;;
19877;SDS011;10101;52.204;9.910;2022-08-30T02:08:08;2.60;;;1.17;;
19877;SDS011;10101;52.204;9.910;2022-08-30T02:10:34;1.53;;;1.00;;
19877;SDS011;10101;52.204;9.910;2022-08-30T02:13:01;1.20;;;1.10;;
19877;SDS011;10101;52.204;9.910;2022-08-30T02:15:30;1.30;;;1.20;;
19877;SDS011;10101;52.204;9.910;2022-08-30T02:17:57;1.33;;;1.23;;
19877;SDS011;10101;52.204;9.910;2022-08-30T02:20:24;1.13;;;1.00;;
19877;SDS011;10101;52.204;9.910;2022-08-30T02:22:51;1.50;;;1.00;;
19877;SDS011;10101;52.204;9.910;2022-08-30T02:25:17;1.90;;;1.20;;
19877;SDS011;10101;52.204;9.910;2022-08-30T02:27:45;2.23;;;1.60;;
19877;SDS011;10101;52.204;9.910;2022-08-30T02:30:12;1.70;;;1.60;;
19877;SDS011;10101;52.204;9.910;2022-08-30T02:32:40;1.23;;;1.20;;
19877;SDS011;10101;52.204;9.910;2022-08-30T02:35:07;1.87;;;1.50;;
19877;SDS011;10101;52.204;9.910;2022-08-30T02:37:34;1.50;;;1.40;;
19877;SDS011;10101;52.204;9.910;2022-08-30T02:40:02;2.87;;;1.60;;
19877;SDS011;10101;52.204;9.910;2022-08-30T02:42:30;2.03;;;1.70;;
19877;SDS011;10101;52.204;9.910;2022-08-30T02:44:57;3.37;;;1.83;;
19877;SDS011;10101;52.204;9.910;2022-08-30T02:47:24;1.50;;;1.40;;
19877;SDS011;10101;52.204;9.910;2022-08-30T02:49:52;1.43;;;1.10;;
19877;SDS011;10101;52.204;9.910;2022-08-30T02:52:19;1.37;;;1.27;;
19877;SDS011;10101;52.204;9.910;2022-08-30T02:54:45;1.20;;;1.10;;
19877;SDS011;10101;52.204;9.910;2022-08-30T02:57:12;1.17;;;1.10;;
19877;SDS011;10101;52.204;9.910;2022-08-30T02:59:39;1.50;;;1.40;;
19877;SDS011;10101;52.204;9.910;2022-08-30T03:02:08;2.00;;;1.27;;
19877;SDS011;10101;52.204;9.910;2022-08-30T03:04:35;2.50;;;1.63;;
19877;SDS011;10101;52.204;9.910;2022-08-30T03:07:04;2.57;;;1.60;;
19877;SDS011;10101;52.204;9.910;2022-08-30T03:09:32;1.93;;;1.60;;
19877;SDS011;10101;52.204;9.910;2022-08-30T03:11:59;2.20;;;2.00;;
19877;SDS011;10101;52.204;9.910;2022-08-30T03:14:26;2.20;;;2.00;;
19877;SDS011;10101;52.204;9.910;2022-08-30T03:16:53;3.33;;;2.10;;
19877;SDS011;10101;52.204;9.910;2022-08-30T03:19:20;2.63;;;2.43;;
19877;SDS011;10101;52.204;9.910;2022-08-30T03:21:47;2.50;;;2.30;;
19877;SDS011;10101;52.204;9.910;2022-08-30T03:24:15;2.30;;;2.10;;
19877;SDS011;10101;52.204;9.910;2022-08-30T03:26:42;2.63;;;2.27;;
19877;SDS011;10101;52.204;9.910;2022-08-30T03:29:09;2.37;;;2.17;;
19877;SDS011;10101;52.204;9.910;2022-08-30T03:31:36;3.57;;;2.50;;
19877;SDS011;10101;52.204;9.910;2022-08-30T03:34:03;2.93;;;2.63;;
19877;SDS011;10101;52.204;9.910;2022-08-30T03:36:30;2.53;;;2.30;;
19877;SDS011;10101;52.204;9.910;2022-08-30T03:38:57;3.40;;;2.37;;
19877;SDS011;10101;52.204;9.910;2022-08-30T03:41:25;3.23;;;2.80;;
19877;SDS011;10101;52.204;9.910;2022-08-30T03:43:56;3.10;;;2.30;;
19877;SDS011;10101;52.204;9.910;2022-08-30T03:46:23;3.83;;;3.10;;
19877;SDS011;10101;52.204;9.910;2022-08-30T03:48:50;3.97;;;3.60;;
19877;SDS011;10101;52.204;9.910;2022-08-30T03:51:19;6.53;;;3.00;;
19877;SDS011;10101;52.204;9.910;2022-08-30T03:53:46;6.03;;;4.03;;
19877;SDS011;10101;52.204;9.910;2022-08-30T03:56:13;3.93;;;3.40;;
19877;SDS011;10101;52.204;9.910;2022-08-30T03:58:43;3.80;;;2.97;;
19877;SDS011;10101;52.204;9.910;2022-08-30T04:01:10;4.57;;;3.70;;
19877;SDS011;10101;52.204;9.910;2022-08-30T04:03:37;4.00;;;3.57;;
19877;SDS011;10101;52.204;9.910;2022-08-30T04:06:04;6.67;;;4.07;;
19877;SDS011;10101;52.204;9.910;2022-08-30T04:08:31;4.13;;;3.50;;
19877;SDS011;10101;52.204;9.910;2022-08-30T04:10:58;3.07;;;2.80;;
19877;SDS011;10101;52.204;9.910;2022-08-30T04:13:26;4.67;;;3.77;;
19877;SDS011;10101;52.204;9.910;2022-08-30T04:15:55;10.73;;;5.60;;
19877;SDS011;10101;52.204;9.910;2022-08-30T04:18:21;8.30;;;5.67;;
19877;SDS011;10101;52.204;9.910;2022-08-30T04:20:49;6.73;;;4.70;;
19877;SDS011;10101;52.204;9.910;2022-08-30T04:23:17;9.90;;;5.77;;
19877;SDS011;10101;52.204;9.910;2022-08-30T04:25:44;8.20;;;5.63;;
19877;SDS011;10101;52.204;9.910;2022-08-30T04:28:11;10.83;;;7.37;;
19877;SDS011;10101;52.204;9.910;2022-08-30T04:30:39;10.00;;;6.60;;
19877;SDS011;10101;52.204;9.910;2022-08-30T04:33:08;17.07;;;7.50;;
19877;SDS011;10101;52.204;9.910;2022-08-30T04:35:35;13.20;;;8.20;;
19877;SDS011;10101;52.204;9.910;2022-08-30T04:38:02;13.03;;;8.70;;
19877;SDS011;10101;52.204;9.910;2022-08-30T04:40:29;13.90;;;9.10;;
19877;SDS011;10101;52.204;9.910;2022-08-30T04:42:56;12.30;;;6.83;;
19877;SDS011;10101;52.204;9.910;2022-08-30T04:45:24;11.10;;;8.33;;
19877;SDS011;10101;52.204;9.910;2022-08-30T04:47:51;25.37;;;7.23;;
19877;SDS011;10101;52.204;9.910;2022-08-30T04:50:19;8.50;;;6.90;;
19877;SDS011;10101;52.204;9.910;2022-08-30T04:52:47;13.90;;;7.00;;
19877;SDS011;10101;52.204;9.910;2022-08-30T04:55:14;8.67;;;6.67;;
19877;SDS011;10101;52.204;9.910;2022-08-30T04:57:41;14.83;;;7.57;;
19877;SDS011;10101;52.204;9.910;2022-08-30T05:00:10;25.43;;;7.30;;
19877;SDS011;10101;52.204;9.910;2022-08-30T05:02:38;10.73;;;7.73;;
19877;SDS011;10101;52.204;9.910;2022-08-30T05:05:05;10.63;;;8.27;;
19877;SDS011;10101;52.204;9.910;2022-08-30T05:08:07;10.53;;;7.63;;
19877;SDS011;10101;52.204;9.910;2022-08-30T05:10:36;11.13;;;7.97;;
19877;SDS011;10101;52.204;9.910;2022-08-30T05:13:04;10.77;;;7.47;;
19877;SDS011;10101;52.204;9.910;2022-08-30T05:15:31;9.70;;;7.00;;
19877;SDS011;10101;52.204;9.910;2022-08-30T05:17:58;10.77;;;7.80;;
19877;SDS011;10101;52.204;9.910;2022-08-30T05:20:25;8.30;;;6.23;;
19877;SDS011;10101;52.204;9.910;2022-08-30T05:22:52;10.37;;;7.33;;
19877;SDS011;10101;52.204;9.910;2022-08-30T05:25:20;16.13;;;6.57;;
19877;SDS011;10101;52.204;9.910;2022-08-30T05:27:48;11.43;;;6.80;;
19877;SDS011;10101;52.204;9.910;2022-08-30T05:30:15;10.90;;;6.47;;
19877;SDS011;10101;52.204;9.910;2022-08-30T05:32:42;9.63;;;5.90;;
19877;SDS011;10101;52.204;9.910;2022-08-30T05:35:10;8.00;;;5.80;;
19877;SDS011;10101;52.204;9.910;2022-08-30T05:37:38;8.40;;;6.50;;
19877;SDS011;10101;52.204;9.910;2022-08-30T05:40:06;9.00;;;7.07;;
19877;SDS011;10101;52.204;9.910;2022-08-30T05:42:34;9.20;;;6.77;;
19877;SDS011;10101;52.204;9.910;2022-08-30T05:45:02;9.47;;;7.53;;
19877;SDS011;10101;52.204;9.910;2022-08-30T05:47:30;9.77;;;7.40;;
19877;SDS011;10101;52.204;9.910;2022-08-30T05:49:57;8.13;;;6.37;;
19877;SDS011;10101;52.204;9.910;2022-08-30T05:52:24;9.63;;;6.20;;
19877;SDS011;10101;52.204;9.910;2022-08-30T05:54:51;9.57;;;7.03;;
19877;SDS011;10101;52.204;9.910;2022-08-30T05:57:19;11.30;;;7.57;;
19877;SDS011;10101;52.204;9.910;2022-08-30T05:59:48;8.90;;;6.70;;
19877;SDS011;10101;52.204;9.910;2022-08-30T06:02:15;12.07;;;6.53;;
19877;SDS011;10101;52.204;9.910;2022-08-30T06:04:42;9.27;;;7.27;;
19877;SDS011;10101;52.204;9.910;2022-08-30T06:07:09;8.67;;;5.97;;
19877;SDS011;10101;52.204;9.910;2022-08-30T06:09:36;8.47;;;6.63;;
19877;SDS011;10101;52.204;9.910;2022-08-30T06:12:03;11.17;;;6.63;;
19877;SDS011;10101;52.204;9.910;2022-08-30T06:14:30;9.57;;;6.37;;
19877;SDS011;10101;52.204;9.910;2022-08-30T06:16:58;11.90;;;7.70;;
19877;SDS011;10101;52.204;9.910;2022-08-30T06:19:25;11.83;;;6.93;;
19877;SDS011;10101;52.204;9.910;2022-08-30T06:21:51;10.77;;;7.60;;
19877;SDS011;10101;52.204;9.910;2022-08-30T06:24:18;10.00;;;7.00;;
19877;SDS011;10101;52.204;9.910;2022-08-30T06:26:45;12.43;;;7.67;;
19877;SDS011;10101;52.204;9.910;2022-08-30T06:29:13;10.93;;;7.70;;
19877;SDS011;10101;52.204;9.910;2022-08-30T06:31:42;8.70;;;6.67;;
19877;SDS011;10101;52.204;9.910;2022-08-30T06:34:10;10.47;;;7.80;;
19877;SDS011;10101;52.204;9.910;2022-08-30T06:36:37;12.30;;;7.03;;
19877;SDS011;10101;52.204;9.910;2022-08-30T06:39:05;9.93;;;6.70;;
19877;SDS011;10101;52.204;9.910;2022-08-30T06:41:33;10.53;;;7.50;;
19877;SDS011;10101;52.204;9.910;2022-08-30T06:44:02;9.43;;;7.43;;
19877;SDS011;10101;52.204;9.910;2022-08-30T06:46:31;14.30;;;8.53;;
19877;SDS011;10101;52.204;9.910;2022-08-30T06:49:00;11.93;;;7.97;;
19877;SDS011;10101;52.204;9.910;2022-08-30T06:51:29;11.10;;;8.10;;
19877;SDS011;10101;52.204;9.910;2022-08-30T06:53:58;11.07;;;7.93;;
19877;SDS011;10101;52.204;9.910;2022-08-30T06:56:25;10.40;;;7.53;;
19877;SDS011;10101;52.204;9.910;2022-08-30T06:58:52;11.97;;;7.50;;
19877;SDS011;10101;52.204;9.910;2022-08-30T07:01:20;11.70;;;8.00;;
19877;SDS011;10101;52.204;9.910;2022-08-30T07:03:49;14.40;;;8.10;;
19877;SDS011;10101;52.204;9.910;2022-08-30T07:06:17;11.87;;;7.40;;
19877;SDS011;10101;52.204;9.910;2022-08-30T07:08:46;13.57;;;8.30;;
19877;SDS011;10101;52.204;9.910;2022-08-30T07:11:13;10.10;;;7.13;;
19877;SDS011;10101;52.204;9.910;2022-08-30T07:13:40;12.30;;;7.13;;
19877;SDS011;10101;52.204;9.910;2022-08-30T07:16:10;12.27;;;7.97;;
19877;SDS011;10101;52.204;9.910;2022-08-30T07:18:38;11.77;;;7.93;;
19877;SDS011;10101;52.204;9.910;2022-08-30T07:21:19;9.33;;;6.50;;
19877;SDS011;10101;52.204;9.910;2022-08-30T07:23:49;11.97;;;7.77;;
19877;SDS011;10101;52.204;9.910;2022-08-30T07:26:18;9.73;;;7.33;;
19877;SDS011;10101;52.204;9.910;2022-08-30T07:28:47;11.23;;;6.90;;
19877;SDS011;10101;52.204;9.910;2022-08-30T07:31:14;10.97;;;7.07;;
19877;SDS011;10101;52.204;9.910;2022-08-30T07:33:43;9.73;;;6.60;;
19877;SDS011;10101;52.204;9.910;2022-08-30T07:36:10;10.17;;;6.53;;
19877;SDS011;10101;52.204;9.910;2022-08-30T07:38:37;10.23;;;6.93;;
19877;SDS011;10101;52.204;9.910;2022-08-30T07:41:06;10.30;;;7.17;;
19877;SDS011;10101;52.204;9.910;2022-08-30T07:43:33;10.07;;;6.70;;
19877;SDS011;10101;52.204;9.910;2022-08-30T07:46:02;10.57;;;6.00;;
19877;SDS011;10101;52.204;9.910;2022-08-30T07:48:30;7.40;;;5.77;;
19877;SDS011;10101;52.204;9.910;2022-08-30T07:50:57;8.80;;;6.13;;
19877;SDS011;10101;52.204;9.910;2022-08-30T07:53:24;13.83;;;7.10;;
19877;SDS011;10101;52.204;9.910;2022-08-30T07:55:51;10.57;;;6.70;;
19877;SDS011;10101;52.204;9.910;2022-08-30T07:58:19;8.70;;;5.90;;
19877;SDS011;10101;52.204;9.910;2022-08-30T08:00:46;8.27;;;5.67;;
19877;SDS011;10101;52.204;9.910;2022-08-30T08:03:12;8.97;;;6.13;;
19877;SDS011;10101;52.204;9.910;2022-08-30T08:05:40;9.53;;;6.60;;
19877;SDS011;10101;52.204;9.910;2022-08-30T08:08:09;9.17;;;5.77;;
19877;SDS011;10101;52.204;9.910;2022-08-30T08:10:36;9.33;;;6.00;;
19877;SDS011;10101;52.204;9.910;2022-08-30T08:13:04;9.87;;;7.30;;
19877;SDS011;10101;52.204;9.910;2022-08-30T08:15:33;9.13;;;6.37;;
19877;SDS011;10101;52.204;9.910;2022-08-30T08:18:00;9.23;;;6.47;;
19877;SDS011;10101;52.204;9.910;2022-08-30T08:20:26;9.77;;;6.33;;
19877;SDS011;10101;52.204;9.910;2022-08-30T08:22:53;10.37;;;7.00;;
19877;SDS011;10101;52.204;9.910;2022-08-30T08:25:20;11.23;;;7.20;;
19877;SDS011;10101;52.204;9.910;2022-08-30T08:27:47;13.03;;;6.40;;
19877;SDS011;10101;52.204;9.910;2022-08-30T08:30:15;11.43;;;7.10;;
19877;SDS011;10101;52.204;9.910;2022-08-30T08:32:43;9.33;;;7.30;;
19877;SDS011;10101;52.204;9.910;2022-08-30T08:35:10;10.27;;;6.30;;
19877;SDS011;10101;52.204;9.910;2022-08-30T08:37:37;10.77;;;7.00;;
19877;SDS011;10101;52.204;9.910;2022-08-30T08:40:05;11.47;;;6.10;;
19877;SDS011;10101;52.204;9.910;2022-08-30T08:42:35;10.40;;;7.47;;
19877;SDS011;10101;52.204;9.910;2022-08-30T08:45:15;10.13;;;7.10;;
19877;SDS011;10101;52.204;9.910;2022-08-30T08:47:51;9.87;;;6.80;;
19877;SDS011;10101;52.204;9.910;2022-08-30T08:50:22;9.30;;;7.00;;
19877;SDS011;10101;52.204;9.910;2022-08-30T08:52:50;8.30;;;5.73;;
19877;SDS011;10101;52.204;9.910;2022-08-30T08:55:39;10.40;;;6.77;;
19877;SDS011;10101;52.204;9.910;2022-08-30T08:58:14;7.97;;;6.07;;
19877;SDS011;10101;52.204;9.910;2022-08-30T09:00:46;9.87;;;6.47;;
19877;SDS011;10101;52.204;9.910;2022-08-30T09:03:15;8.20;;;5.80;;
19877;SDS011;10101;52.204;9.910;2022-08-30T09:05:45;10.23;;;6.20;;
19877;SDS011;10101;52.204;9.910;2022-08-30T09:08:13;8.07;;;5.53;;
19877;SDS011;10101;52.204;9.910;2022-08-30T09:10:41;7.03;;;5.20;;
19877;SDS011;10101;52.204;9.910;2022-08-30T09:13:18;7.63;;;5.20;;
19877;SDS011;10101;52.204;9.910;2022-08-30T09:15:45;7.00;;;5.37;;
19877;SDS011;10101;52.204;9.910;2022-08-30T09:18:12;6.83;;;5.23;;
19877;SDS011;10101;52.204;9.910;2022-08-30T09:20:43;7.57;;;5.40;;
19877;SDS011;10101;52.204;9.910;2022-08-30T09:23:20;6.87;;;4.90;;
19877;SDS011;10101;52.204;9.910;2022-08-30T09:25:56;6.40;;;4.30;;
19877;SDS011;10101;52.204;9.910;2022-08-30T09:28:25;5.30;;;3.93;;
19877;SDS011;10101;52.204;9.910;2022-08-30T09:30:58;6.07;;;4.00;;
19877;SDS011;10101;52.204;9.910;2022-08-30T09:33:30;6.30;;;4.23;;
19877;SDS011;10101;52.204;9.910;2022-08-30T09:36:09;6.20;;;4.83;;
19877;SDS011;10101;52.204;9.910;2022-08-30T09:38:44;6.13;;;4.53;;
19877;SDS011;10101;52.204;9.910;2022-08-30T09:41:27;5.97;;;4.57;;
19877;SDS011;10101;52.204;9.910;2022-08-30T09:44:03;5.27;;;4.03;;
19877;SDS011;10101;52.204;9.910;2022-08-30T09:46:32;4.83;;;4.20;;
19877;SDS011;10101;52.204;9.910;2022-08-30T09:49:15;4.93;;;3.90;;
19877;SDS011;10101;52.204;9.910;2022-08-30T09:51:54;5.40;;;3.70;;
19877;SDS011;10101;52.204;9.910;2022-08-30T09:54:33;4.30;;;3.53;;
19877;SDS011;10101;52.204;9.910;2022-08-30T09:57:05;5.20;;;3.00;;
19877;SDS011;10101;52.204;9.910;2022-08-30T09:59:40;4.27;;;3.40;;
19877;SDS011;10101;52.204;9.910;2022-08-30T10:02:19;3.40;;;2.87;;
19877;SDS011;10101;52.204;9.910;2022-08-30T10:05:11;4.53;;;2.93;;
19877;SDS011;10101;52.204;9.910;2022-08-30T10:07:45;3.20;;;2.90;;
19877;SDS011;10101;52.204;9.910;2022-08-30T10:10:18;3.43;;;3.00;;
19877;SDS011;10101;52.204;9.910;2022-08-30T10:12:57;5.87;;;3.00;;
19877;SDS011;10101;52.204;9.910;2022-08-30T10:15:30;4.17;;;2.93;;
19877;SDS011;10101;52.204;9.910;2022-08-30T10:18:02;3.20;;;2.90;;
19877;SDS011;10101;52.204;9.910;2022-08-30T10:20:40;3.00;;;2.60;;
19877;SDS011;10101;52.204;9.910;2022-08-30T10:23:18;4.00;;;2.73;;
19877;SDS011;10101;52.204;9.910;2022-08-30T10:25:50;4.67;;;3.90;;
19877;SDS011;10101;52.204;9.910;2022-08-30T10:28:21;5.20;;;4.50;;
19877;SDS011;10101;52.204;9.910;2022-08-30T10:30:55;7.90;;;6.37;;
19877;SDS011;10101;52.204;9.910;2022-08-30T10:33:27;7.30;;;5.47;;
19877;SDS011;10101;52.204;9.910;2022-08-30T10:36:02;4.73;;;4.20;;
19877;SDS011;10101;52.204;9.910;2022-08-30T10:38:34;3.90;;;3.60;;
19877;SDS011;10101;52.204;9.910;2022-08-30T10:41:05;7.47;;;3.83;;
19877;SDS011;10101;52.204;9.910;2022-08-30T10:43:40;4.73;;;4.30;;
19877;SDS011;10101;52.204;9.910;2022-08-30T10:46:15;6.80;;;5.97;;
19877;SDS011;10101;52.204;9.910;2022-08-30T10:48:47;8.17;;;7.00;;
19877;SDS011;10101;52.204;9.910;2022-08-30T10:51:32;6.77;;;6.03;;
19877;SDS011;10101;52.204;9.910;2022-08-30T10:54:07;5.13;;;4.50;;
19877;SDS011;10101;52.204;9.910;2022-08-30T10:56:39;4.27;;;3.40;;
19877;SDS011;10101;52.204;9.910;2022-08-30T10:59:07;4.00;;;3.37;;
19877;SDS011;10101;52.204;9.910;2022-08-30T11:01:43;4.00;;;2.90;;
19877;SDS011;10101;52.204;9.910;2022-08-30T11:04:30;3.40;;;3.10;;
19877;SDS011;10101;52.204;9.910;2022-08-30T11:07:13;2.80;;;2.57;;
19877;SDS011;10101;52.204;9.910;2022-08-30T11:09:50;2.90;;;2.60;;
19877;SDS011;10101;52.204;9.910;2022-08-30T11:12:30;5.67;;;2.93;;
19877;SDS011;10101;52.204;9.910;2022-08-30T11:15:10;5.57;;;3.60;;
19877;SDS011;10101;52.204;9.910;2022-08-30T11:17:43;4.90;;;2.80;;
19877;SDS011;10101;52.204;9.910;2022-08-30T11:20:20;3.27;;;2.50;;
19877;SDS011;10101;52.204;9.910;2022-08-30T11:25:59;3.27;;;2.80;;
19877;SDS011;10101;52.204;9.910;2022-08-30T11:31:36;3.70;;;2.40;;
19877;SDS011;10101;52.204;9.910;2022-08-30T11:34:06;3.40;;;2.90;;
19877;SDS011;10101;52.204;9.910;2022-08-30T11:42:27;4.90;;;2.67;;
19877;SDS011;10101;52.204;9.910;2022-08-30T11:51:10;3.07;;;2.77;;
19877;SDS011;10101;52.204;9.910;2022-08-30T11:53:54;3.30;;;2.20;;
19877;SDS011;10101;52.204;9.910;2022-08-30T11:56:30;3.27;;;2.10;;
19877;SDS011;10101;52.204;9.910;2022-08-30T11:59:09;3.50;;;2.27;;
19877;SDS011;10101;52.204;9.910;2022-08-30T12:01:48;3.33;;;2.00;;
19877;SDS011;10101;52.204;9.910;2022-08-30T12:04:24;2.50;;;1.90;;
19877;SDS011;10101;52.204;9.910;2022-08-30T12:06:53;1.93;;;1.83;;
19877;SDS011;10101;52.204;9.910;2022-08-30T12:12:50;2.20;;;2.00;;
19877;SDS011;10101;52.204;9.910;2022-08-30T12:15:25;2.40;;;2.10;;
19877;SDS011;10101;52.204;9.910;2022-08-30T12:18:14;2.47;;;2.17;;
19877;SDS011;10101;52.204;9.910;2022-08-30T12:20:54;2.10;;;1.80;;
19877;SDS011;10101;52.204;9.910;2022-08-30T12:23:30;2.70;;;2.47;;
19877;SDS011;10101;52.204;9.910;2022-08-30T12:26:13;3.30;;;2.10;;
19877;SDS011;10101;52.204;9.910;2022-08-30T12:28:44;3.07;;;2.00;;
19877;SDS011;10101;52.204;9.910;2022-08-30T12:31:14;2.97;;;2.33;;
19877;SDS011;10101;52.204;9.910;2022-08-30T12:33:45;2.40;;;1.90;;
19877;SDS011;10101;52.204;9.910;2022-08-30T12:36:16;2.30;;;1.90;;
19877;SDS011;10101;52.204;9.910;2022-08-30T12:39:04;2.83;;;1.87;;
19877;SDS011;10101;52.204;9.910;2022-08-30T12:41:36;2.77;;;1.80;;
19877;SDS011;10101;52.204;9.910;2022-08-30T12:44:07;4.50;;;2.00;;
19877;SDS011;10101;52.204;9.910;2022-08-30T12:46:38;2.93;;;2.33;;
19877;SDS011;10101;52.204;9.910;2022-08-30T12:49:06;5.37;;;1.90;;
19877;SDS011;10101;52.204;9.910;2022-08-30T12:51:34;3.00;;;2.60;;
19877;SDS011;10101;52.204;9.910;2022-08-30T12:54:16;2.20;;;2.00;;
19877;SDS011;10101;52.204;9.910;2022-08-30T12:56:56;2.20;;;2.00;;
19877;SDS011;10101;52.204;9.910;2022-08-30T13:02:22;3.35;;;1.80;;
19877;SDS011;10101;52.204;9.910;2022-08-30T13:04:52;1.77;;;1.63;;
19877;SDS011;10101;52.204;9.910;2022-08-30T13:07:24;2.25;;;1.80;;
19877;SDS011;10101;52.204;9.910;2022-08-30T13:10:05;4.50;;;2.10;;
19877;SDS011;10101;52.204;9.910;2022-08-30T13:12:38;3.97;;;1.65;;
19877;SDS011;10101;52.204;9.910;2022-08-30T13:15:10;1.60;;;1.50;;
19877;SDS011;10101;52.204;9.910;2022-08-30T13:17:42;2.00;;;1.73;;
19877;SDS011;10101;52.204;9.910;2022-08-30T13:20:19;1.90;;;1.80;;
19877;SDS011;10101;52.204;9.910;2022-08-30T13:22:59;1.63;;;1.48;;
19877;SDS011;10101;52.204;9.910;2022-08-30T13:25:29;2.30;;;1.40;;
19877;SDS011;10101;52.204;9.910;2022-08-30T13:27:56;1.70;;;1.33;;
19877;SDS011;10101;52.204;9.910;2022-08-30T13:30:25;2.00;;;1.55;;
19877;SDS011;10101;52.204;9.910;2022-08-30T13:32:53;2.33;;;1.42;;
19877;SDS011;10101;52.204;9.910;2022-08-30T13:35:21;3.92;;;1.50;;
19877;SDS011;10101;52.204;9.910;2022-08-30T13:37:48;2.90;;;1.70;;
19877;SDS011;10101;52.204;9.910;2022-08-30T13:40:15;2.17;;;1.50;;
19877;SDS011;10101;52.204;9.910;2022-08-30T13:42:42;4.28;;;1.70;;
19877;SDS011;10101;52.204;9.910;2022-08-30T13:45:09;2.03;;;1.40;;
19877;SDS011;10101;52.204;9.910;2022-08-30T13:47:39;2.08;;;1.60;;
19877;SDS011;10101;52.204;9.910;2022-08-30T13:50:08;2.15;;;1.95;;
19877;SDS011;10101;52.204;9.910;2022-08-30T13:52:35;2.35;;;1.70;;
19877;SDS011;10101;52.204;9.910;2022-08-30T13:55:02;1.80;;;1.70;;
19877;SDS011;10101;52.204;9.910;2022-08-30T13:57:29;5.32;;;2.00;;
19877;SDS011;10101;52.204;9.910;2022-08-30T13:59:57;2.15;;;1.80;;
19877;SDS011;10101;52.204;9.910;2022-08-30T14:02:23;2.67;;;1.98;;
19877;SDS011;10101;52.204;9.910;2022-08-30T14:04:52;1.90;;;1.80;;
19877;SDS011;10101;52.204;9.910;2022-08-30T14:07:18;4.15;;;2.00;;
19877;SDS011;10101;52.204;9.910;2022-08-30T14:09:45;1.98;;;1.73;;
19877;SDS011;10101;52.204;9.910;2022-08-30T14:12:12;2.50;;;1.80;;
19877;SDS011;10101;52.204;9.910;2022-08-30T14:14:39;2.25;;;1.90;;
19877;SDS011;10101;52.204;9.910;2022-08-30T14:17:05;1.95;;;1.75;;
19877;SDS011;10101;52.204;9.910;2022-08-30T14:19:32;1.52;;;1.42;;
19877;SDS011;10101;52.204;9.910;2022-08-30T14:22:00;2.10;;;1.65;;
19877;SDS011;10101;52.204;9.910;2022-08-30T14:24:27;2.05;;;1.27;;
19877;SDS011;10101;52.204;9.910;2022-08-30T14:26:54;2.17;;;1.52;;
19877;SDS011;10101;52.204;9.910;2022-08-30T14:29:23;2.45;;;1.58;;
19877;SDS011;10101;52.204;9.910;2022-08-30T14:31:53;3.20;;;2.00;;
19877;SDS011;10101;52.204;9.910;2022-08-30T14:34:21;1.75;;;1.65;;
19877;SDS011;10101;52.204;9.910;2022-08-30T14:36:49;3.85;;;1.98;;
19877;SDS011;10101;52.204;9.910;2022-08-30T14:39:17;1.60;;;1.42;;
19877;SDS011;10101;52.204;9.910;2022-08-30T14:41:46;1.50;;;1.40;;
19877;SDS011;10101;52.204;9.910;2022-08-30T14:44:14;3.13;;;1.80;;
19877;SDS011;10101;52.204;9.910;2022-08-30T14:46:43;1.67;;;1.58;;
19877;SDS011;10101;52.204;9.910;2022-08-30T14:49:10;2.67;;;1.50;;
19877;SDS011;10101;52.204;9.910;2022-08-30T14:51:37;3.45;;;1.67;;
19877;SDS011;10101;52.204;9.910;2022-08-30T14:54:04;2.95;;;1.70;;
19877;SDS011;10101;52.204;9.910;2022-08-30T14:56:33;1.52;;;1.42;;
19877;SDS011;10101;52.204;9.910;2022-08-30T14:59:01;2.15;;;1.30;;
19877;SDS011;10101;52.204;9.910;2022-08-30T15:01:28;3.88;;;1.70;;
19877;SDS011;10101;52.204;9.910;2022-08-30T15:03:56;2.75;;;1.48;;
19877;SDS011;10101;52.204;9.910;2022-08-30T15:06:23;2.40;;;1.45;;
19877;SDS011;10101;52.204;9.910;2022-08-30T15:08:50;3.60;;;1.42;;
19877;SDS011;10101;52.204;9.910;2022-08-30T15:11:18;1.83;;;1.30;;
19877;SDS011;10101;52.204;9.910;2022-08-30T15:13:48;1.83;;;1.30;;
19877;SDS011;10101;52.204;9.910;2022-08-30T15:16:16;3.25;;;1.30;;
19877;SDS011;10101;52.204;9.910;2022-08-30T15:18:45;2.40;;;1.30;;
19877;SDS011;10101;52.204;9.910;2022-08-30T15:21:12;1.50;;;1.20;;
19877;SDS011;10101;52.204;9.910;2022-08-30T15:23:39;1.60;;;1.30;;
19877;SDS011;10101;52.204;9.910;2022-08-30T15:26:06;1.58;;;1.35;;